createdAt,value
2017-04-02T00:00:57.329Z,12.66
2017-04-02T00:01:58.759Z,12.75
2017-04-02T00:03:00.194Z,12.93
2017-04-02T00:04:01.629Z,12.63
2017-04-02T00:05:03.064Z,12.75
2017-04-02T00:06:04.489Z,12.85
2017-04-02T00:07:05.924Z,12.77
2017-04-02T00:08:07.363Z,12.82
2017-04-02T00:09:08.790Z,12.78
2017-04-02T00:10:10.217Z,12.81
2017-04-02T00:11:11.668Z,12.82
2017-04-02T00:12:13.097Z,12.77
2017-04-02T00:13:14.534Z,12.57
2017-04-02T00:14:15.959Z,12.64
2017-04-02T00:15:17.384Z,12.85
2017-04-02T00:16:18.822Z,12.84
2017-04-02T00:17:20.250Z,12.99
2017-04-02T00:18:21.681Z,12.92
2017-04-02T00:19:23.102Z,12.93
2017-04-02T00:20:24.535Z,12.96
2017-04-02T00:21:25.962Z,13.02
2017-04-02T00:22:27.393Z,12.77
2017-04-02T00:23:28.825Z,12.92
2017-04-02T00:24:30.256Z,12.95
2017-04-02T00:25:31.691Z,12.74
2017-04-02T00:26:33.111Z,12.78
2017-04-02T00:27:34.539Z,12.79
2017-04-02T00:28:35.976Z,12.69
2017-04-02T00:29:37.404Z,12.78
2017-04-02T00:30:38.834Z,12.66
2017-04-02T00:31:40.268Z,12.66
2017-04-02T00:32:41.701Z,12.71
2017-04-02T00:33:43.132Z,12.81
2017-04-02T00:34:44.558Z,12.64
2017-04-02T00:35:45.984Z,12.78
2017-04-02T00:36:47.413Z,12.78
2017-04-02T00:37:48.840Z,12.62
2017-04-02T00:38:50.271Z,12.78
2017-04-02T00:39:51.699Z,12.67
2017-04-02T00:40:53.128Z,12.62
2017-04-02T00:41:54.560Z,12.34
2017-04-02T00:42:55.988Z,12.38
2017-04-02T00:43:57.410Z,12.34
2017-04-02T00:44:58.841Z,12.06
2017-04-02T00:46:00.270Z,12.19
2017-04-02T00:47:01.712Z,12.30
2017-04-02T00:48:03.140Z,12.33
2017-04-02T00:49:05.290Z,12.57
2017-04-02T00:50:06.734Z,12.75
2017-04-02T00:51:08.165Z,12.44
2017-04-02T00:52:09.597Z,12.59
2017-04-02T00:53:11.025Z,12.63
2017-04-02T00:54:12.459Z,12.46
2017-04-02T00:55:13.894Z,12.45
2017-04-02T00:56:15.361Z,12.41
2017-04-02T00:57:16.790Z,12.46
2017-04-02T00:58:18.220Z,12.23
2017-04-02T00:59:19.653Z,12.24
2017-04-02T01:00:21.572Z,12.42
2017-04-02T01:01:23.020Z,12.62
2017-04-02T01:02:24.445Z,12.46
2017-04-02T01:03:25.871Z,12.33
2017-04-02T01:04:27.297Z,12.46
2017-04-02T01:05:28.728Z,12.45
2017-04-02T01:06:30.156Z,12.48
2017-04-02T01:07:31.594Z,12.45
2017-04-02T01:08:33.037Z,12.52
2017-04-02T01:09:34.465Z,12.57
2017-04-02T01:10:35.905Z,12.59
2017-04-02T01:11:37.326Z,12.59
2017-04-02T01:12:38.751Z,12.42
2017-04-02T01:13:40.859Z,12.49
2017-04-02T01:14:42.293Z,12.46
2017-04-02T01:15:43.722Z,12.34
2017-04-02T01:16:45.149Z,12.56
2017-04-02T01:17:46.579Z,12.74
2017-04-02T01:18:48.002Z,12.42
2017-04-02T01:19:49.445Z,12.54
2017-04-02T01:20:50.868Z,12.38
2017-04-02T01:21:52.857Z,12.60
2017-04-02T01:22:54.281Z,12.60
2017-04-02T01:23:55.713Z,12.46
2017-04-02T01:24:57.140Z,12.56
2017-04-02T01:25:58.576Z,12.57
2017-04-02T01:26:59.998Z,12.44
2017-04-02T01:28:02.039Z,12.46
2017-04-02T01:29:03.508Z,12.37
2017-04-02T01:30:04.934Z,12.33
2017-04-02T01:31:06.366Z,12.34
2017-04-02T01:32:07.819Z,12.45
2017-04-02T01:33:09.253Z,12.56
2017-04-02T01:34:10.685Z,12.59
2017-04-02T01:35:12.109Z,12.41
2017-04-02T01:36:13.622Z,12.33
2017-04-02T01:37:15.047Z,12.37
2017-04-02T01:38:16.473Z,12.38
2017-04-02T01:39:17.931Z,12.19
2017-04-02T01:40:19.364Z,12.31
2017-04-02T01:41:20.792Z,12.39
2017-04-02T01:42:22.220Z,12.45
2017-04-02T01:43:23.648Z,12.34
2017-04-02T01:44:25.110Z,12.45
2017-04-02T01:45:26.502Z,12.09
2017-04-02T01:46:27.923Z,12.31
2017-04-02T01:47:29.350Z,12.34
2017-04-02T01:48:30.779Z,12.46
2017-04-02T01:49:32.201Z,12.46
2017-04-02T01:50:33.630Z,12.39
2017-04-02T01:51:35.062Z,12.46
2017-04-02T01:52:36.492Z,12.48
2017-04-02T01:53:37.917Z,12.34
2017-04-02T01:54:39.348Z,12.39
2017-04-02T01:55:40.775Z,12.34
2017-04-02T01:56:42.205Z,12.45
2017-04-02T01:57:43.637Z,12.48
2017-04-02T01:58:45.060Z,12.60
2017-04-02T01:59:46.518Z,12.34
2017-04-02T02:00:47.915Z,12.12
2017-04-02T02:01:49.347Z,12.05
2017-04-02T02:02:50.773Z,12.20
2017-04-02T02:03:52.201Z,12.21
2017-04-02T02:04:53.629Z,12.06
2017-04-02T02:05:55.056Z,12.08
2017-04-02T02:06:56.479Z,12.24
2017-04-02T02:07:57.909Z,12.21
2017-04-02T02:08:59.335Z,12.23
2017-04-02T02:10:00.763Z,12.48
2017-04-02T02:11:02.192Z,12.11
2017-04-02T02:12:03.622Z,12.02
2017-04-02T02:13:05.050Z,12.23
2017-04-02T02:14:06.467Z,12.19
2017-04-02T02:15:07.894Z,12.16
2017-04-02T02:16:09.318Z,12.05
2017-04-02T02:17:10.750Z,12.11
2017-04-02T02:18:12.178Z,12.11
2017-04-02T02:19:13.610Z,12.08
2017-04-02T02:20:15.043Z,11.96
2017-04-02T02:21:16.475Z,12.24
2017-04-02T02:22:17.904Z,12.12
2017-04-02T02:23:19.327Z,12.08
2017-04-02T02:24:20.759Z,12.23
2017-04-02T02:25:22.185Z,12.31
2017-04-02T02:26:23.623Z,12.30
2017-04-02T02:27:25.045Z,12.15
2017-04-02T02:28:26.478Z,12.23
2017-04-02T02:29:27.907Z,12.20
2017-04-02T02:30:29.339Z,12.24
2017-04-02T02:31:30.757Z,12.16
2017-04-02T02:32:32.178Z,12.19
2017-04-02T02:33:33.607Z,12.21
2017-04-02T02:34:35.031Z,11.94
2017-04-02T02:35:36.461Z,11.94
2017-04-02T02:36:37.887Z,12.11
2017-04-02T02:37:39.308Z,12.11
2017-04-02T02:38:40.733Z,11.97
2017-04-02T02:39:42.164Z,11.72
2017-04-02T02:40:43.604Z,11.94
2017-04-02T02:41:45.022Z,12.16
2017-04-02T02:42:46.451Z,12.31
2017-04-02T02:43:47.882Z,12.04
2017-04-02T02:44:49.303Z,11.99
2017-04-02T02:45:50.727Z,12.04
2017-04-02T02:46:52.159Z,11.94
2017-04-02T02:47:53.586Z,11.96
2017-04-02T02:48:55.018Z,12.08
2017-04-02T02:49:56.439Z,11.94
2017-04-02T02:50:57.964Z,12.04
2017-04-02T02:51:59.394Z,12.04
2017-04-02T02:53:00.821Z,12.20
2017-04-02T02:54:02.824Z,12.11
2017-04-02T02:55:04.257Z,12.26
2017-04-02T02:56:05.685Z,12.06
2017-04-02T02:57:07.115Z,12.06
2017-04-02T02:58:08.546Z,12.08
2017-04-02T02:59:09.971Z,11.89
2017-04-02T03:00:11.397Z,11.94
2017-04-02T03:01:12.819Z,11.87
2017-04-02T03:02:14.241Z,11.97
2017-04-02T03:03:15.677Z,11.94
2017-04-02T03:04:17.104Z,11.85
2017-04-02T03:05:18.522Z,11.86
2017-04-02T03:06:19.965Z,11.89
2017-04-02T03:07:21.386Z,11.87
2017-04-02T03:08:22.812Z,12.15
2017-04-02T03:09:24.253Z,12.05
2017-04-02T03:10:25.678Z,12.12
2017-04-02T03:11:27.110Z,12.26
2017-04-02T03:12:28.546Z,11.94
2017-04-02T03:13:29.972Z,11.90
2017-04-02T03:14:31.394Z,11.89
2017-04-02T03:15:32.823Z,11.75
2017-04-02T03:16:34.255Z,11.78
2017-04-02T03:17:35.681Z,11.74
2017-04-02T03:18:37.110Z,11.93
2017-04-02T03:19:38.534Z,11.86
2017-04-02T03:20:39.960Z,11.96
2017-04-02T03:21:41.404Z,12.09
2017-04-02T03:22:42.831Z,12.24
2017-04-02T03:23:44.267Z,12.30
2017-04-02T03:24:46.635Z,12.38
2017-04-02T03:25:48.067Z,12.31
2017-04-02T03:26:49.515Z,12.41
2017-04-02T03:27:50.942Z,12.31
2017-04-02T03:28:52.376Z,12.31
2017-04-02T03:29:53.799Z,12.20
2017-04-02T03:30:55.289Z,12.08
2017-04-02T03:31:56.678Z,11.93
2017-04-02T03:32:58.099Z,11.89
2017-04-02T03:33:59.538Z,11.94
2017-04-02T03:35:00.994Z,11.83
2017-04-02T03:36:02.422Z,11.72
2017-04-02T03:37:03.853Z,11.61
2017-04-02T03:38:05.279Z,11.61
2017-04-02T03:39:06.701Z,11.82
2017-04-02T03:40:08.129Z,11.71
2017-04-02T03:41:09.557Z,11.57
2017-04-02T03:42:10.986Z,11.71
2017-04-02T03:43:12.414Z,11.64
2017-04-02T03:44:13.839Z,11.57
2017-04-02T03:45:15.269Z,11.54
2017-04-02T03:46:16.700Z,11.54
2017-04-02T03:47:18.133Z,11.54
2017-04-02T03:48:19.955Z,11.59
2017-04-02T03:49:21.378Z,11.52
2017-04-02T03:50:22.812Z,11.67
2017-04-02T03:51:24.239Z,11.59
2017-04-02T03:52:25.666Z,11.74
2017-04-02T03:53:27.106Z,11.75
2017-04-02T03:54:28.529Z,11.87
2017-04-02T03:55:29.957Z,11.97
2017-04-02T03:56:31.390Z,11.80
2017-04-02T03:57:32.816Z,11.72
2017-04-02T03:58:34.237Z,11.77
2017-04-02T03:59:35.664Z,11.65
2017-04-02T04:00:37.092Z,11.49
2017-04-02T04:01:38.522Z,11.43
2017-04-02T04:02:39.952Z,11.54
2017-04-02T04:03:41.376Z,11.50
2017-04-02T04:04:42.806Z,11.39
2017-04-02T04:05:44.229Z,11.35
2017-04-02T04:06:45.660Z,11.32
2017-04-02T04:07:47.090Z,11.31
2017-04-02T04:08:48.519Z,11.27
2017-04-02T04:09:49.954Z,11.29
2017-04-02T04:10:51.378Z,11.27
2017-04-02T04:11:52.812Z,11.32
2017-04-02T04:12:54.243Z,11.44
2017-04-02T04:13:55.668Z,11.62
2017-04-02T04:14:57.097Z,11.44
2017-04-02T04:15:58.535Z,11.41
2017-04-02T04:16:59.961Z,11.35
2017-04-02T04:18:01.388Z,11.28
2017-04-02T04:19:02.812Z,11.35
2017-04-02T04:20:04.244Z,11.32
2017-04-02T04:21:05.670Z,11.25
2017-04-02T04:22:07.096Z,11.17
2017-04-02T04:23:08.520Z,11.34
2017-04-02T04:24:09.977Z,11.35
2017-04-02T04:25:11.365Z,11.50
2017-04-02T04:26:12.811Z,11.57
2017-04-02T04:27:14.240Z,11.47
2017-04-02T04:28:15.685Z,11.31
2017-04-02T04:29:17.107Z,11.32
2017-04-02T04:30:18.531Z,11.29
2017-04-02T04:31:19.957Z,11.28
2017-04-02T04:32:21.934Z,11.36
2017-04-02T04:33:23.365Z,11.28
2017-04-02T04:34:24.786Z,11.38
2017-04-02T04:35:26.211Z,11.38
2017-04-02T04:36:27.699Z,11.35
2017-04-02T04:37:29.159Z,11.41
2017-04-02T04:38:30.583Z,11.59
2017-04-02T04:39:32.818Z,11.62
2017-04-02T04:40:34.250Z,11.74
2017-04-02T04:41:35.678Z,11.80
2017-04-02T04:42:37.114Z,11.59
2017-04-02T04:43:38.533Z,11.83
2017-04-02T04:44:39.951Z,11.77
2017-04-02T04:45:41.383Z,11.70
2017-04-02T04:46:42.810Z,11.74
2017-04-02T04:47:44.243Z,11.64
2017-04-02T04:48:45.668Z,11.77
2017-04-02T04:49:47.099Z,11.61
2017-04-02T04:50:48.523Z,11.82
2017-04-02T04:51:49.949Z,11.94
2017-04-02T04:52:51.376Z,11.85
2017-04-02T04:53:52.798Z,11.78
2017-04-02T04:54:54.224Z,11.49
2017-04-02T04:55:55.648Z,11.50
2017-04-02T04:56:57.080Z,11.36
2017-04-02T04:57:58.502Z,11.32
2017-04-02T04:58:59.930Z,11.62
2017-04-02T05:00:01.362Z,11.34
2017-04-02T05:01:02.791Z,11.43
2017-04-02T05:02:04.218Z,11.54
2017-04-02T05:03:05.649Z,11.50
2017-04-02T05:04:07.082Z,11.46
2017-04-02T05:05:08.509Z,11.77
2017-04-02T05:06:09.934Z,11.93
2017-04-02T05:07:11.362Z,11.82
2017-04-02T05:08:12.789Z,11.86
2017-04-02T05:09:14.216Z,11.77
2017-04-02T05:10:15.643Z,11.75
2017-04-02T05:11:17.073Z,11.75
2017-04-02T05:12:18.501Z,11.57
2017-04-02T05:13:19.929Z,11.59
2017-04-02T05:14:21.356Z,11.61
2017-04-02T05:15:22.777Z,11.52
2017-04-02T05:16:24.206Z,11.57
2017-04-02T05:17:25.635Z,11.53
2017-04-02T05:18:27.068Z,11.46
2017-04-02T05:19:28.496Z,11.43
2017-04-02T05:20:29.923Z,11.34
2017-04-02T05:21:31.351Z,11.44
2017-04-02T05:22:32.783Z,11.54
2017-04-02T05:23:34.217Z,11.61
2017-04-02T05:24:35.643Z,11.64
2017-04-02T05:25:37.082Z,11.59
2017-04-02T05:26:38.510Z,11.65
2017-04-02T05:27:39.945Z,11.64
2017-04-02T05:28:41.444Z,11.75
2017-04-02T05:29:42.867Z,11.82
2017-04-02T05:30:44.300Z,11.65
2017-04-02T05:31:45.726Z,11.72
2017-04-02T05:32:47.171Z,11.74
2017-04-02T05:33:48.606Z,11.85
2017-04-02T05:34:50.029Z,11.89
2017-04-02T05:35:51.547Z,11.97
2017-04-02T05:36:52.985Z,11.85
2017-04-02T05:37:54.429Z,11.89
2017-04-02T05:38:55.851Z,11.94
2017-04-02T05:39:57.288Z,11.75
2017-04-02T05:40:58.717Z,11.72
2017-04-02T05:42:00.151Z,11.97
2017-04-02T05:43:01.677Z,11.78
2017-04-02T05:44:03.133Z,11.96
2017-04-02T05:45:04.560Z,12.05
2017-04-02T05:46:06.023Z,12.19
2017-04-02T05:47:07.422Z,11.86
2017-04-02T05:48:09.436Z,12.12
2017-04-02T05:49:10.861Z,11.94
2017-04-02T05:50:12.305Z,12.11
2017-04-02T05:51:13.735Z,12.13
2017-04-02T05:52:15.166Z,12.20
2017-04-02T05:53:16.600Z,12.19
2017-04-02T05:54:18.030Z,12.21
2017-04-02T05:55:19.462Z,12.37
2017-04-02T05:56:20.898Z,12.13
2017-04-02T05:57:22.331Z,12.33
2017-04-02T05:58:23.756Z,12.23
2017-04-02T05:59:25.196Z,12.46
2017-04-02T06:00:27.487Z,12.60
2017-04-02T06:01:28.922Z,12.49
2017-04-02T06:02:30.352Z,12.16
2017-04-02T06:03:31.783Z,12.23
2017-04-02T06:04:33.226Z,12.44
2017-04-02T06:05:34.660Z,12.48
2017-04-02T06:06:36.089Z,12.48
2017-04-02T06:07:37.528Z,12.45
2017-04-02T06:08:38.957Z,12.12
2017-04-02T06:09:40.387Z,12.26
2017-04-02T06:10:41.814Z,12.26
2017-04-02T06:11:43.246Z,12.21
2017-04-02T06:12:44.675Z,12.38
2017-04-02T06:13:46.107Z,12.44
2017-04-02T06:14:47.537Z,12.42
2017-04-02T06:15:48.973Z,12.37
2017-04-02T06:16:50.402Z,12.39
2017-04-02T06:17:51.833Z,12.46
2017-04-02T06:18:53.260Z,12.30
2017-04-02T06:19:54.696Z,12.38
2017-04-02T06:20:56.133Z,12.45
2017-04-02T06:21:57.558Z,12.34
2017-04-02T06:22:58.991Z,12.37
2017-04-02T06:24:00.420Z,12.41
2017-04-02T06:25:01.853Z,12.37
2017-04-02T06:26:03.290Z,12.45
2017-04-02T06:27:04.722Z,12.63
2017-04-02T06:28:06.163Z,12.62
2017-04-02T06:29:07.598Z,12.69
2017-04-02T06:30:09.034Z,12.66
2017-04-02T06:31:10.459Z,12.69
2017-04-02T06:32:11.959Z,12.78
2017-04-02T06:33:13.951Z,12.75
2017-04-02T06:34:15.384Z,12.56
2017-04-02T06:35:17.366Z,12.69
2017-04-02T06:36:18.803Z,12.67
2017-04-02T06:37:20.975Z,12.60
2017-04-02T06:38:22.412Z,12.85
2017-04-02T06:39:23.849Z,12.89
2017-04-02T06:40:26.002Z,12.93
2017-04-02T06:41:27.435Z,12.96
2017-04-02T06:42:28.875Z,12.95
2017-04-02T06:43:30.864Z,13.12
2017-04-02T06:44:33.212Z,13.06
2017-04-02T06:45:35.399Z,12.84
2017-04-02T06:46:36.830Z,12.82
2017-04-02T06:47:43.132Z,12.64
2017-04-02T06:48:45.249Z,13.00
2017-04-02T06:49:46.682Z,12.78
2017-04-02T06:50:49.046Z,12.77
2017-04-02T06:51:50.479Z,12.84
2017-04-02T06:52:51.911Z,12.87
2017-04-02T06:53:53.341Z,12.77
2017-04-02T06:54:54.780Z,12.78
2017-04-02T06:55:56.205Z,12.96
2017-04-02T06:56:57.638Z,13.20
2017-04-02T06:57:59.085Z,13.06
2017-04-02T06:59:00.514Z,12.97
2017-04-02T07:00:02.696Z,13.06
2017-04-02T07:01:04.132Z,13.15
2017-04-02T07:02:05.571Z,12.93
2017-04-02T07:03:07.005Z,12.77
2017-04-02T07:04:08.447Z,12.59
2017-04-02T07:05:10.850Z,12.59
2017-04-02T07:06:12.268Z,12.78
2017-04-02T07:07:13.706Z,12.97
2017-04-02T07:08:15.144Z,12.87
2017-04-02T07:11:51.639Z,13.58
2017-04-02T07:12:53.067Z,12.99
2017-04-02T07:13:54.502Z,13.00
2017-04-02T07:14:55.933Z,13.07
2017-04-02T07:15:57.407Z,12.99
2017-04-02T07:16:58.832Z,12.87
2017-04-02T07:18:00.276Z,12.99
2017-04-02T07:19:01.804Z,12.84
2017-04-02T07:20:03.263Z,12.82
2017-04-02T07:21:04.697Z,12.89
2017-04-02T07:22:06.138Z,13.02
2017-04-02T07:23:07.570Z,12.89
2017-04-02T07:24:09.001Z,12.89
2017-04-02T07:25:10.437Z,12.81
2017-04-02T07:26:11.955Z,12.87
2017-04-02T07:27:13.385Z,12.93
2017-04-02T07:28:14.820Z,12.66
2017-04-02T07:29:16.251Z,12.46
2017-04-02T07:30:17.694Z,12.75
2017-04-02T07:31:19.201Z,12.93
2017-04-02T07:32:20.635Z,13.04
2017-04-02T07:33:22.058Z,12.87
2017-04-02T07:34:23.500Z,12.66
2017-04-02T07:35:24.930Z,12.54
2017-04-02T07:36:26.367Z,12.56
2017-04-02T07:37:27.794Z,12.77
2017-04-02T07:38:29.239Z,12.56
2017-04-02T07:39:30.684Z,12.48
2017-04-02T07:40:32.110Z,12.45
2017-04-02T07:41:33.545Z,12.71
2017-04-02T07:42:34.993Z,12.67
2017-04-02T07:43:36.422Z,12.67
2017-04-02T07:44:37.865Z,12.81
2017-04-02T07:45:39.348Z,12.88
2017-04-02T07:46:40.782Z,12.97
2017-04-02T07:47:42.221Z,12.92
2017-04-02T07:48:43.710Z,12.95
2017-04-02T07:49:45.136Z,13.00
2017-04-02T07:50:46.573Z,12.95
2017-04-02T07:51:48.013Z,12.93
2017-04-02T07:52:49.458Z,12.88
2017-04-02T07:53:50.931Z,12.89
2017-04-02T07:54:52.404Z,13.04
2017-04-02T07:55:53.840Z,13.07
2017-04-02T07:56:55.268Z,13.07
2017-04-02T07:57:56.703Z,13.11
2017-04-02T07:58:58.137Z,13.27
2017-04-02T07:59:59.588Z,13.25
2017-04-02T08:01:01.019Z,13.33
2017-04-02T08:02:02.453Z,13.14
2017-04-02T08:03:03.940Z,13.03
2017-04-02T08:04:05.369Z,13.00
2017-04-02T08:05:07.654Z,13.03
2017-04-02T08:06:09.232Z,13.03
2017-04-02T08:07:10.672Z,13.20
2017-04-02T08:08:12.105Z,13.06
2017-04-02T08:09:13.545Z,12.96
2017-04-02T08:10:14.985Z,13.29
2017-04-02T08:11:16.415Z,13.18
2017-04-02T08:12:17.939Z,13.09
2017-04-02T08:13:19.382Z,13.11
2017-04-02T08:14:20.829Z,13.14
2017-04-02T08:15:22.261Z,13.25
2017-04-02T08:16:23.710Z,13.30
2017-04-02T08:17:25.143Z,13.33
2017-04-02T08:18:26.576Z,13.36
2017-04-02T08:19:28.008Z,13.40
2017-04-02T08:20:29.443Z,13.41
2017-04-02T08:21:30.879Z,13.37
2017-04-02T08:22:32.309Z,13.36
2017-04-02T08:23:33.749Z,13.32
2017-04-02T08:24:35.176Z,13.61
2017-04-02T08:25:36.620Z,13.63
2017-04-02T08:26:38.059Z,13.71
2017-04-02T08:27:39.490Z,13.88
2017-04-02T08:28:40.926Z,13.95
2017-04-02T08:29:42.947Z,13.91
2017-04-02T08:30:44.375Z,13.61
2017-04-02T08:31:45.806Z,13.89
2017-04-02T08:32:47.238Z,13.91
2017-04-02T08:33:48.674Z,14.01
2017-04-02T08:34:50.101Z,13.89
2017-04-02T08:35:51.540Z,13.96
2017-04-02T08:36:52.975Z,13.88
2017-04-02T08:37:54.404Z,13.96
2017-04-02T08:38:55.843Z,13.89
2017-04-02T08:39:57.283Z,13.95
2017-04-02T08:40:59.939Z,13.95
2017-04-02T08:42:01.404Z,13.89
2017-04-02T08:43:03.618Z,14.04
2017-04-02T08:44:08.387Z,14.25
2017-04-02T08:45:09.653Z,14.37
2017-04-02T08:46:11.093Z,14.31
2017-04-02T08:47:12.538Z,14.52
2017-04-02T08:48:14.100Z,14.54
2017-04-02T08:49:16.012Z,14.62
2017-04-02T08:50:17.420Z,14.71
2017-04-02T08:51:18.847Z,14.57
2017-04-02T08:52:20.283Z,14.17
2017-04-02T08:53:21.763Z,14.53
2017-04-02T08:54:23.192Z,14.86
2017-04-02T08:55:24.631Z,14.72
2017-04-02T08:56:26.063Z,14.88
2017-04-02T08:57:27.514Z,15.06
2017-04-02T08:58:28.953Z,14.86
2017-04-02T08:59:30.400Z,15.05
2017-04-02T09:00:31.837Z,15.20
2017-04-02T09:01:33.293Z,15.02
2017-04-02T09:02:34.931Z,15.03
2017-04-02T09:03:36.362Z,15.05
2017-04-02T09:04:39.255Z,14.84
2017-04-02T09:05:40.814Z,14.75
2017-04-02T09:06:43.648Z,14.81
2017-04-02T09:07:45.090Z,15.01
2017-04-02T09:08:46.537Z,15.05
2017-04-02T09:09:47.969Z,15.03
2017-04-02T09:10:49.585Z,14.87
2017-04-02T09:11:51.022Z,14.67
2017-04-02T09:12:52.563Z,14.54
2017-04-02T09:13:54.344Z,14.47
2017-04-02T09:14:55.789Z,14.57
2017-04-02T09:15:57.237Z,14.78
2017-04-02T09:16:59.657Z,14.95
2017-04-02T09:18:01.093Z,15.20
2017-04-02T09:19:02.522Z,15.20
2017-04-02T09:20:03.960Z,15.33
2017-04-02T09:21:05.393Z,15.57
2017-04-02T09:22:06.825Z,15.61
2017-04-02T09:23:08.254Z,15.36
2017-04-02T09:24:09.701Z,15.56
2017-04-02T09:25:11.136Z,15.79
2017-04-02T09:26:12.566Z,15.68
2017-04-02T09:27:14.015Z,15.81
2017-04-02T09:28:15.446Z,15.94
2017-04-02T09:29:16.881Z,15.97
2017-04-02T09:30:18.317Z,15.78
2017-04-02T09:31:19.850Z,15.79
2017-04-02T09:32:21.283Z,15.88
2017-04-02T09:33:22.715Z,15.88
2017-04-02T09:34:24.162Z,15.97
2017-04-02T09:35:25.605Z,16.23
2017-04-02T09:36:27.034Z,16.45
2017-04-02T09:37:28.472Z,15.89
2017-04-02T09:38:29.958Z,15.75
2017-04-02T09:39:31.400Z,15.86
2017-04-02T09:40:32.832Z,15.92
2017-04-02T09:41:34.267Z,16.16
2017-04-02T09:42:35.698Z,16.15
2017-04-02T09:43:37.138Z,16.03
2017-04-02T09:44:38.582Z,15.96
2017-04-02T09:45:40.016Z,16.14
2017-04-02T09:46:41.456Z,15.84
2017-04-02T09:47:42.889Z,15.94
2017-04-02T09:48:44.325Z,16.26
2017-04-02T09:49:45.767Z,15.85
2017-04-02T09:50:47.206Z,15.92
2017-04-02T09:51:48.649Z,15.81
2017-04-02T09:52:50.089Z,15.59
2017-04-02T09:53:51.540Z,15.52
2017-04-02T09:54:52.979Z,15.41
2017-04-02T09:55:54.416Z,15.30
2017-04-02T09:56:55.852Z,15.33
2017-04-02T09:57:57.363Z,15.38
2017-04-02T09:58:58.797Z,15.64
2017-04-02T10:00:00.255Z,15.57
2017-04-02T10:01:01.703Z,15.54
2017-04-02T10:02:03.141Z,15.54
2017-04-02T10:03:04.589Z,15.78
2017-04-02T10:04:06.034Z,16.11
2017-04-02T10:05:07.466Z,16.26
2017-04-02T10:06:08.906Z,16.55
2017-04-02T10:07:10.345Z,16.25
2017-04-02T10:08:11.788Z,16.22
2017-04-02T10:09:13.228Z,16.07
2017-04-02T10:10:14.673Z,16.22
2017-04-02T10:11:16.103Z,16.34
2017-04-02T10:12:17.587Z,16.23
2017-04-02T10:13:19.028Z,16.50
2017-04-02T10:14:20.461Z,16.49
2017-04-02T10:15:21.897Z,16.55
2017-04-02T10:16:23.411Z,16.83
2017-04-02T10:17:24.850Z,16.67
2017-04-02T10:18:26.288Z,16.48
2017-04-02T10:19:27.720Z,16.77
2017-04-02T10:20:29.155Z,16.73
2017-04-02T10:21:30.591Z,16.56
2017-04-02T10:22:32.030Z,16.52
2017-04-02T10:23:33.469Z,16.58
2017-04-02T10:24:35.558Z,16.83
2017-04-02T10:25:36.999Z,16.89
2017-04-02T10:26:38.428Z,17.04
2017-04-02T10:27:39.869Z,16.89
2017-04-02T10:28:41.320Z,16.86
2017-04-02T10:29:42.744Z,16.56
2017-04-02T10:30:44.189Z,16.53
2017-04-02T10:31:45.622Z,16.59
2017-04-02T10:32:47.053Z,16.68
2017-04-02T10:33:48.489Z,16.83
2017-04-02T10:34:49.936Z,16.77
2017-04-02T10:35:51.374Z,16.45
2017-04-02T10:36:52.814Z,16.81
2017-04-02T10:37:54.247Z,16.90
2017-04-02T10:38:55.690Z,17.33
2017-04-02T10:39:57.127Z,17.41
2017-04-02T10:40:58.571Z,17.62
2017-04-02T10:42:00.012Z,17.29
2017-04-02T10:43:01.460Z,16.98
2017-04-02T10:44:02.897Z,17.08
2017-04-02T10:45:04.341Z,16.90
2017-04-02T10:46:05.784Z,16.65
2017-04-02T10:47:07.218Z,16.33
2017-04-02T10:48:08.656Z,16.14
2017-04-02T10:49:10.099Z,16.27
2017-04-02T10:50:11.539Z,16.30
2017-04-02T10:51:12.991Z,16.34
2017-04-02T10:52:14.424Z,16.50
2017-04-02T10:53:15.895Z,16.34
2017-04-02T10:54:17.331Z,16.23
2017-04-02T10:55:18.771Z,16.34
2017-04-02T10:56:20.209Z,16.45
2017-04-02T10:57:21.635Z,16.49
2017-04-02T10:58:23.074Z,16.55
2017-04-02T10:59:24.723Z,16.68
2017-04-02T11:00:27.153Z,16.74
2017-04-02T11:01:29.547Z,16.67
2017-04-02T11:02:30.872Z,17.13
2017-04-02T11:03:32.345Z,17.11
2017-04-02T11:04:33.768Z,17.11
2017-04-02T11:05:35.200Z,16.73
2017-04-02T11:06:36.654Z,16.42
2017-04-02T11:07:38.088Z,16.31
2017-04-02T11:08:39.524Z,15.96
2017-04-02T11:09:41.518Z,15.97
2017-04-02T11:10:42.961Z,15.78
2017-04-02T11:11:44.412Z,15.88
2017-04-02T11:12:45.846Z,15.74
2017-04-02T11:13:47.284Z,15.68
2017-04-02T11:14:48.722Z,15.54
2017-04-02T11:15:50.152Z,15.54
2017-04-02T11:16:51.596Z,15.49
2017-04-02T11:17:53.041Z,15.52
2017-04-02T11:18:54.467Z,15.79
2017-04-02T11:19:55.906Z,16.26
2017-04-02T11:20:57.349Z,16.80
2017-04-02T11:21:58.797Z,16.88
2017-04-02T11:23:00.244Z,16.95
2017-04-02T11:24:01.677Z,16.81
2017-04-02T11:25:03.106Z,16.92
2017-04-02T11:26:04.553Z,17.35
2017-04-02T11:27:05.995Z,17.57
2017-04-02T11:28:07.427Z,17.43
2017-04-02T11:29:09.510Z,17.36
2017-04-02T11:30:10.945Z,17.51
2017-04-02T11:31:12.386Z,17.63
2017-04-02T11:32:14.660Z,17.81
2017-04-02T11:33:16.090Z,18.06
2017-04-02T11:34:17.529Z,18.18
2017-04-02T11:35:18.970Z,18.22
2017-04-02T11:36:20.410Z,18.79
2017-04-02T11:37:21.850Z,18.67
2017-04-02T11:38:23.282Z,18.42
2017-04-02T11:39:24.723Z,18.61
2017-04-02T11:40:26.171Z,18.34
2017-04-02T11:41:27.609Z,18.39
2017-04-02T11:42:29.047Z,18.54
2017-04-02T11:43:30.477Z,18.44
2017-04-02T11:44:31.912Z,18.42
2017-04-02T11:45:33.348Z,18.61
2017-04-02T11:46:34.789Z,18.59
2017-04-02T11:47:36.231Z,18.80
2017-04-02T11:48:37.665Z,18.87
2017-04-02T11:49:39.108Z,18.64
2017-04-02T11:50:40.545Z,18.92
2017-04-02T11:51:41.987Z,19.25
2017-04-02T11:52:43.411Z,19.66
2017-04-02T11:53:44.860Z,20.09
2017-04-02T11:54:46.293Z,19.97
2017-04-02T11:55:47.737Z,19.57
2017-04-02T11:56:49.175Z,18.91
2017-04-02T11:57:50.607Z,19.23
2017-04-02T11:58:52.047Z,19.14
2017-04-02T11:59:53.487Z,18.86
2017-04-02T12:00:54.930Z,18.98
2017-04-02T12:01:56.367Z,19.14
2017-04-02T12:02:57.830Z,19.05
2017-04-02T12:03:59.272Z,18.87
2017-04-02T12:05:00.719Z,18.92
2017-04-02T12:06:02.161Z,18.84
2017-04-02T12:07:03.598Z,18.67
2017-04-02T12:08:05.032Z,18.40
2017-04-02T12:09:06.476Z,18.65
2017-04-02T12:10:07.926Z,18.44
2017-04-02T12:11:09.383Z,18.61
2017-04-02T12:12:10.840Z,18.40
2017-04-02T12:13:12.291Z,18.37
2017-04-02T12:14:13.726Z,18.37
2017-04-02T12:15:15.171Z,18.54
2017-04-02T12:16:16.608Z,19.01
2017-04-02T12:17:18.040Z,19.21
2017-04-02T12:18:19.483Z,18.55
2017-04-02T12:19:20.926Z,18.62
2017-04-02T12:20:22.357Z,18.39
2017-04-02T12:21:23.812Z,18.49
2017-04-02T12:22:25.242Z,18.50
2017-04-02T12:23:26.686Z,18.94
2017-04-02T12:24:28.129Z,19.20
2017-04-02T12:25:29.565Z,19.15
2017-04-02T12:26:31.014Z,18.84
2017-04-02T12:27:32.447Z,18.87
2017-04-02T12:28:33.879Z,19.10
2017-04-02T12:29:35.341Z,18.98
2017-04-02T12:30:36.779Z,18.43
2017-04-02T12:31:38.215Z,18.64
2017-04-02T12:32:39.651Z,18.39
2017-04-02T12:33:41.096Z,18.12
2017-04-02T12:34:42.539Z,17.97
2017-04-02T12:35:43.978Z,17.71
2017-04-02T12:36:47.667Z,17.94
2017-04-02T12:37:53.604Z,18.00
2017-04-02T12:38:54.776Z,17.74
2017-04-02T12:39:56.226Z,17.63
2017-04-02T12:40:57.668Z,17.94
2017-04-02T12:41:59.246Z,18.10
2017-04-02T12:43:00.677Z,18.07
2017-04-02T12:44:02.111Z,17.92
2017-04-02T12:45:03.545Z,18.28
2017-04-02T12:46:04.991Z,18.44
2017-04-02T12:47:06.426Z,18.86
2017-04-02T12:48:07.867Z,18.70
2017-04-02T12:49:09.307Z,18.17
2017-04-02T12:50:10.735Z,17.89
2017-04-02T12:51:12.177Z,17.70
2017-04-02T12:52:13.619Z,17.59
2017-04-02T12:53:15.052Z,17.36
2017-04-02T12:54:16.500Z,17.15
2017-04-02T12:55:17.936Z,17.35
2017-04-02T12:56:19.382Z,17.51
2017-04-02T12:57:20.820Z,17.23
2017-04-02T12:58:22.257Z,17.36
2017-04-02T12:59:23.691Z,17.07
2017-04-02T13:00:25.151Z,17.11
2017-04-02T13:01:26.590Z,17.36
2017-04-02T13:02:28.027Z,17.53
2017-04-02T13:03:29.473Z,17.71
2017-04-02T13:04:30.906Z,18.37
2017-04-02T13:05:32.336Z,18.61
2017-04-02T13:06:33.783Z,18.95
2017-04-02T13:07:35.328Z,19.11
2017-04-02T13:08:36.770Z,19.43
2017-04-02T13:09:38.207Z,19.08
2017-04-02T13:10:39.648Z,19.05
2017-04-02T13:11:41.094Z,19.42
2017-04-02T13:12:42.537Z,19.35
2017-04-02T13:13:43.967Z,19.50
2017-04-02T13:14:45.412Z,19.60